sensor_id;sensor_type;location;lat;lon;timestamp;temperature;humidity
17774;DHT22;9011;33.236;-97.118;2022-10-16T00:01:10;30.60;96.30
17774;DHT22;9011;33.236;-97.118;2022-10-16T00:03:39;30.50;96.30
17774;DHT22;9011;33.236;-97.118;2022-10-16T00:06:08;30.50;96.20
17774;DHT22;9011;33.236;-97.118;2022-10-16T00:08:37;30.50;96.30
17774;DHT22;9011;33.236;-97.118;2022-10-16T00:11:08;30.50;96.20
17774;DHT22;9011;33.236;-97.118;2022-10-16T00:13:38;30.40;96.20
17774;DHT22;9011;33.236;-97.118;2022-10-16T00:16:09;30.40;96.10
17774;DHT22;9011;33.236;-97.118;2022-10-16T00:18:38;30.40;96.20
17774;DHT22;9011;33.236;-97.118;2022-10-16T00:21:08;30.40;96.10
17774;DHT22;9011;33.236;-97.118;2022-10-16T00:23:37;30.40;95.90
17774;DHT22;9011;33.236;-97.118;2022-10-16T00:26:07;30.40;96.00
17774;DHT22;9011;33.236;-97.118;2022-10-16T00:28:36;30.40;95.90
17774;DHT22;9011;33.236;-97.118;2022-10-16T00:31:06;30.40;95.90
17774;DHT22;9011;33.236;-97.118;2022-10-16T00:33:37;30.30;96.00
17774;DHT22;9011;33.236;-97.118;2022-10-16T00:36:08;30.30;96.00
17774;DHT22;9011;33.236;-97.118;2022-10-16T00:38:37;30.30;96.50
17774;DHT22;9011;33.236;-97.118;2022-10-16T00:41:07;30.10;96.40
17774;DHT22;9011;33.236;-97.118;2022-10-16T00:43:38;30.10;96.40
17774;DHT22;9011;33.236;-97.118;2022-10-16T00:46:15;30.10;96.70
17774;DHT22;9011;33.236;-97.118;2022-10-16T00:48:50;30.00;96.80
17774;DHT22;9011;33.236;-97.118;2022-10-16T00:51:23;29.90;96.80
17774;DHT22;9011;33.236;-97.118;2022-10-16T00:53:52;29.70;97.30
17774;DHT22;9011;33.236;-97.118;2022-10-16T00:56:21;29.60;97.50
17774;DHT22;9011;33.236;-97.118;2022-10-16T00:58:49;29.50;97.80
17774;DHT22;9011;33.236;-97.118;2022-10-16T01:01:18;29.40;97.60
17774;DHT22;9011;33.236;-97.118;2022-10-16T01:03:48;29.40;97.60
17774;DHT22;9011;33.236;-97.118;2022-10-16T01:06:30;29.30;97.70
17774;DHT22;9011;33.236;-97.118;2022-10-16T01:09:12;29.30;97.70
17774;DHT22;9011;33.236;-97.118;2022-10-16T01:11:48;29.30;97.60
17774;DHT22;9011;33.236;-97.118;2022-10-16T01:14:22;29.20;97.80
17774;DHT22;9011;33.236;-97.118;2022-10-16T01:16:58;29.10;97.80
17774;DHT22;9011;33.236;-97.118;2022-10-16T01:19:51;29.10;98.00
17774;DHT22;9011;33.236;-97.118;2022-10-16T01:22:26;29.00;98.40
17774;DHT22;9011;33.236;-97.118;2022-10-16T01:24:58;28.90;98.30
17774;DHT22;9011;33.236;-97.118;2022-10-16T01:27:31;29.00;98.40
17774;DHT22;9011;33.236;-97.118;2022-10-16T01:30:06;28.90;98.50
17774;DHT22;9011;33.236;-97.118;2022-10-16T01:32:39;28.90;98.70
17774;DHT22;9011;33.236;-97.118;2022-10-16T01:35:11;28.80;98.90
17774;DHT22;9011;33.236;-97.118;2022-10-16T01:37:48;28.70;99.00
17774;DHT22;9011;33.236;-97.118;2022-10-16T01:40:20;28.60;99.10
17774;DHT22;9011;33.236;-97.118;2022-10-16T01:42:53;28.60;99.60
17774;DHT22;9011;33.236;-97.118;2022-10-16T01:45:23;28.60;99.70
17774;DHT22;9011;33.236;-97.118;2022-10-16T01:47:52;28.50;99.80
17774;DHT22;9011;33.236;-97.118;2022-10-16T01:50:22;28.50;99.90
17774;DHT22;9011;33.236;-97.118;2022-10-16T01:52:53;28.40;99.90
17774;DHT22;9011;33.236;-97.118;2022-10-16T01:55:28;28.40;99.90
17774;DHT22;9011;33.236;-97.118;2022-10-16T01:58:00;28.40;99.90
17774;DHT22;9011;33.236;-97.118;2022-10-16T02:00:30;28.40;99.90
17774;DHT22;9011;33.236;-97.118;2022-10-16T02:03:01;28.40;99.90
17774;DHT22;9011;33.236;-97.118;2022-10-16T02:05:36;28.40;99.90
17774;DHT22;9011;33.236;-97.118;2022-10-16T02:08:06;28.40;99.90
17774;DHT22;9011;33.236;-97.118;2022-10-16T02:10:35;28.40;99.90
17774;DHT22;9011;33.236;-97.118;2022-10-16T02:13:08;28.30;99.90
17774;DHT22;9011;33.236;-97.118;2022-10-16T02:15:38;28.40;99.90
17774;DHT22;9011;33.236;-97.118;2022-10-16T02:18:07;28.30;99.90
17774;DHT22;9011;33.236;-97.118;2022-10-16T02:20:40;28.30;99.90
17774;DHT22;9011;33.236;-97.118;2022-10-16T02:23:15;28.20;99.90
17774;DHT22;9011;33.236;-97.118;2022-10-16T02:25:48;28.30;99.90
17774;DHT22;9011;33.236;-97.118;2022-10-16T02:28:24;28.20;99.90
17774;DHT22;9011;33.236;-97.118;2022-10-16T02:30:57;28.20;99.90
17774;DHT22;9011;33.236;-97.118;2022-10-16T02:33:27;28.20;99.90
17774;DHT22;9011;33.236;-97.118;2022-10-16T02:35:57;28.20;99.90
17774;DHT22;9011;33.236;-97.118;2022-10-16T02:38:26;28.20;99.90
17774;DHT22;9011;33.236;-97.118;2022-10-16T02:40:56;28.20;99.90
17774;DHT22;9011;33.236;-97.118;2022-10-16T02:43:27;28.20;99.90
17774;DHT22;9011;33.236;-97.118;2022-10-16T02:45:56;28.20;99.90
17774;DHT22;9011;33.236;-97.118;2022-10-16T02:48:24;28.10;99.90
17774;DHT22;9011;33.236;-97.118;2022-10-16T02:50:52;28.10;99.90
17774;DHT22;9011;33.236;-97.118;2022-10-16T02:53:21;28.10;99.90
17774;DHT22;9011;33.236;-97.118;2022-10-16T02:55:49;28.00;99.90
17774;DHT22;9011;33.236;-97.118;2022-10-16T02:58:18;27.90;99.90
17774;DHT22;9011;33.236;-97.118;2022-10-16T03:00:48;27.80;99.90
17774;DHT22;9011;33.236;-97.118;2022-10-16T03:03:16;27.90;99.90
17774;DHT22;9011;33.236;-97.118;2022-10-16T03:05:45;27.80;99.90
17774;DHT22;9011;33.236;-97.118;2022-10-16T03:08:13;27.80;99.90
17774;DHT22;9011;33.236;-97.118;2022-10-16T03:10:42;27.70;99.90
17774;DHT22;9011;33.236;-97.118;2022-10-16T03:13:11;27.70;99.90
17774;DHT22;9011;33.236;-97.118;2022-10-16T03:15:39;27.70;99.90
17774;DHT22;9011;33.236;-97.118;2022-10-16T03:18:09;27.70;99.90
17774;DHT22;9011;33.236;-97.118;2022-10-16T03:20:38;27.60;99.90
17774;DHT22;9011;33.236;-97.118;2022-10-16T03:23:06;27.60;99.90
17774;DHT22;9011;33.236;-97.118;2022-10-16T03:25:34;27.60;99.90
17774;DHT22;9011;33.236;-97.118;2022-10-16T03:28:03;27.50;99.90
17774;DHT22;9011;33.236;-97.118;2022-10-16T03:30:32;27.60;99.90
17774;DHT22;9011;33.236;-97.118;2022-10-16T03:33:00;27.60;99.90
17774;DHT22;9011;33.236;-97.118;2022-10-16T03:35:30;27.60;99.90
17774;DHT22;9011;33.236;-97.118;2022-10-16T03:37:59;27.50;99.90
17774;DHT22;9011;33.236;-97.118;2022-10-16T03:40:27;27.50;99.90
17774;DHT22;9011;33.236;-97.118;2022-10-16T03:42:58;27.50;99.90
17774;DHT22;9011;33.236;-97.118;2022-10-16T03:45:26;27.50;99.90
17774;DHT22;9011;33.236;-97.118;2022-10-16T03:47:55;27.40;99.90
17774;DHT22;9011;33.236;-97.118;2022-10-16T03:50:23;27.40;99.90
17774;DHT22;9011;33.236;-97.118;2022-10-16T03:52:53;27.30;99.90
17774;DHT22;9011;33.236;-97.118;2022-10-16T03:55:22;27.20;99.90
17774;DHT22;9011;33.236;-97.118;2022-10-16T03:57:50;27.20;99.90
17774;DHT22;9011;33.236;-97.118;2022-10-16T04:00:19;27.20;99.90
17774;DHT22;9011;33.236;-97.118;2022-10-16T04:02:47;27.00;99.90
17774;DHT22;9011;33.236;-97.118;2022-10-16T04:05:16;27.00;99.90
17774;DHT22;9011;33.236;-97.118;2022-10-16T04:07:44;27.00;99.90
17774;DHT22;9011;33.236;-97.118;2022-10-16T04:10:14;27.00;99.90
17774;DHT22;9011;33.236;-97.118;2022-10-16T04:12:43;26.90;99.90
17774;DHT22;9011;33.236;-97.118;2022-10-16T04:15:11;26.80;99.90
17774;DHT22;9011;33.236;-97.118;2022-10-16T04:17:40;26.70;99.90
17774;DHT22;9011;33.236;-97.118;2022-10-16T04:20:09;26.60;99.90
17774;DHT22;9011;33.236;-97.118;2022-10-16T04:22:37;26.60;99.90
17774;DHT22;9011;33.236;-97.118;2022-10-16T04:25:06;26.50;99.90
17774;DHT22;9011;33.236;-97.118;2022-10-16T04:27:36;26.60;99.90
17774;DHT22;9011;33.236;-97.118;2022-10-16T04:30:06;26.40;99.90
17774;DHT22;9011;33.236;-97.118;2022-10-16T04:32:34;26.30;99.90
17774;DHT22;9011;33.236;-97.118;2022-10-16T04:35:03;26.20;99.90
17774;DHT22;9011;33.236;-97.118;2022-10-16T04:37:32;26.20;99.90
17774;DHT22;9011;33.236;-97.118;2022-10-16T04:40:00;26.10;99.90
17774;DHT22;9011;33.236;-97.118;2022-10-16T04:42:28;26.10;99.90
17774;DHT22;9011;33.236;-97.118;2022-10-16T04:44:58;26.10;99.90
17774;DHT22;9011;33.236;-97.118;2022-10-16T04:47:27;26.10;99.90
17774;DHT22;9011;33.236;-97.118;2022-10-16T04:49:55;26.10;99.90
17774;DHT22;9011;33.236;-97.118;2022-10-16T04:52:25;26.20;99.90
17774;DHT22;9011;33.236;-97.118;2022-10-16T04:54:53;26.10;99.90
17774;DHT22;9011;33.236;-97.118;2022-10-16T04:57:22;26.10;99.90
17774;DHT22;9011;33.236;-97.118;2022-10-16T04:59:51;26.10;99.90
17774;DHT22;9011;33.236;-97.118;2022-10-16T05:02:21;26.10;99.90
17774;DHT22;9011;33.236;-97.118;2022-10-16T05:04:51;26.10;99.90
17774;DHT22;9011;33.236;-97.118;2022-10-16T05:07:19;26.10;99.90
17774;DHT22;9011;33.236;-97.118;2022-10-16T05:09:48;26.00;99.90
17774;DHT22;9011;33.236;-97.118;2022-10-16T05:12:16;26.10;99.90
17774;DHT22;9011;33.236;-97.118;2022-10-16T05:14:45;26.10;99.90
17774;DHT22;9011;33.236;-97.118;2022-10-16T05:17:13;26.10;99.90
17774;DHT22;9011;33.236;-97.118;2022-10-16T05:19:43;26.10;99.90
17774;DHT22;9011;33.236;-97.118;2022-10-16T05:22:12;26.10;99.90
17774;DHT22;9011;33.236;-97.118;2022-10-16T05:24:40;26.10;99.90
17774;DHT22;9011;33.236;-97.118;2022-10-16T05:27:09;26.10;99.90
17774;DHT22;9011;33.236;-97.118;2022-10-16T05:29:37;26.10;99.90
17774;DHT22;9011;33.236;-97.118;2022-10-16T05:32:06;26.10;99.90
17774;DHT22;9011;33.236;-97.118;2022-10-16T05:34:34;26.10;99.90
17774;DHT22;9011;33.236;-97.118;2022-10-16T05:37:05;26.10;99.90
17774;DHT22;9011;33.236;-97.118;2022-10-16T05:39:33;26.10;99.90
17774;DHT22;9011;33.236;-97.118;2022-10-16T05:42:03;26.10;99.90
17774;DHT22;9011;33.236;-97.118;2022-10-16T05:44:32;26.00;99.90
17774;DHT22;9011;33.236;-97.118;2022-10-16T05:47:00;26.00;99.90
17774;DHT22;9011;33.236;-97.118;2022-10-16T05:49:29;26.00;99.90
17774;DHT22;9011;33.236;-97.118;2022-10-16T05:51:57;26.10;99.90
17774;DHT22;9011;33.236;-97.118;2022-10-16T05:54:27;26.00;99.90
17774;DHT22;9011;33.236;-97.118;2022-10-16T05:56:55;26.00;99.90
17774;DHT22;9011;33.236;-97.118;2022-10-16T05:59:24;26.00;99.90
17774;DHT22;9011;33.236;-97.118;2022-10-16T06:01:52;25.90;99.90
17774;DHT22;9011;33.236;-97.118;2022-10-16T06:04:20;25.90;99.90
17774;DHT22;9011;33.236;-97.118;2022-10-16T06:06:49;25.90;99.90
17774;DHT22;9011;33.236;-97.118;2022-10-16T06:09:17;25.90;99.90
17774;DHT22;9011;33.236;-97.118;2022-10-16T06:11:47;25.90;99.90
17774;DHT22;9011;33.236;-97.118;2022-10-16T06:14:16;25.80;99.90
17774;DHT22;9011;33.236;-97.118;2022-10-16T06:16:44;25.80;99.90
17774;DHT22;9011;33.236;-97.118;2022-10-16T06:19:13;25.80;99.90
17774;DHT22;9011;33.236;-97.118;2022-10-16T06:21:42;25.80;99.90
17774;DHT22;9011;33.236;-97.118;2022-10-16T06:24:11;25.70;99.90
17774;DHT22;9011;33.236;-97.118;2022-10-16T06:26:39;25.70;99.90
17774;DHT22;9011;33.236;-97.118;2022-10-16T06:29:10;25.70;99.90
17774;DHT22;9011;33.236;-97.118;2022-10-16T06:31:38;25.70;99.90
17774;DHT22;9011;33.236;-97.118;2022-10-16T06:34:09;25.70;99.90
17774;DHT22;9011;33.236;-97.118;2022-10-16T06:36:38;25.70;99.90
17774;DHT22;9011;33.236;-97.118;2022-10-16T06:39:07;25.70;99.90
17774;DHT22;9011;33.236;-97.118;2022-10-16T06:41:36;25.80;99.90
17774;DHT22;9011;33.236;-97.118;2022-10-16T06:44:06;25.70;99.90
17774;DHT22;9011;33.236;-97.118;2022-10-16T06:46:36;25.70;99.90
17774;DHT22;9011;33.236;-97.118;2022-10-16T06:49:04;25.70;99.90
17774;DHT22;9011;33.236;-97.118;2022-10-16T06:51:33;25.80;99.90
17774;DHT22;9011;33.236;-97.118;2022-10-16T06:54:03;25.80;99.90
17774;DHT22;9011;33.236;-97.118;2022-10-16T06:56:32;25.70;99.90
17774;DHT22;9011;33.236;-97.118;2022-10-16T06:59:01;25.70;99.90
17774;DHT22;9011;33.236;-97.118;2022-10-16T07:01:29;25.70;99.90
17774;DHT22;9011;33.236;-97.118;2022-10-16T07:04:00;25.70;99.90
17774;DHT22;9011;33.236;-97.118;2022-10-16T07:06:31;25.70;99.90
17774;DHT22;9011;33.236;-97.118;2022-10-16T07:09:03;25.70;99.90
17774;DHT22;9011;33.236;-97.118;2022-10-16T07:11:32;25.60;99.90
17774;DHT22;9011;33.236;-97.118;2022-10-16T07:14:00;25.60;99.90
17774;DHT22;9011;33.236;-97.118;2022-10-16T07:16:30;25.60;99.90
17774;DHT22;9011;33.236;-97.118;2022-10-16T07:19:04;25.60;99.90
17774;DHT22;9011;33.236;-97.118;2022-10-16T07:21:35;25.60;99.90
17774;DHT22;9011;33.236;-97.118;2022-10-16T07:24:05;25.60;99.90
17774;DHT22;9011;33.236;-97.118;2022-10-16T07:26:35;25.60;99.90
17774;DHT22;9011;33.236;-97.118;2022-10-16T07:29:06;25.50;99.90
17774;DHT22;9011;33.236;-97.118;2022-10-16T07:31:35;25.60;99.90
17774;DHT22;9011;33.236;-97.118;2022-10-16T07:34:06;25.50;99.90
17774;DHT22;9011;33.236;-97.118;2022-10-16T07:36:34;25.50;99.90
17774;DHT22;9011;33.236;-97.118;2022-10-16T07:39:03;25.50;99.90
17774;DHT22;9011;33.236;-97.118;2022-10-16T07:41:32;25.50;99.90
17774;DHT22;9011;33.236;-97.118;2022-10-16T07:44:03;25.50;99.90
17774;DHT22;9011;33.236;-97.118;2022-10-16T07:46:32;25.50;99.90
17774;DHT22;9011;33.236;-97.118;2022-10-16T07:49:02;25.50;99.90
17774;DHT22;9011;33.236;-97.118;2022-10-16T07:51:32;25.50;99.90
17774;DHT22;9011;33.236;-97.118;2022-10-16T07:54:01;25.50;99.90
17774;DHT22;9011;33.236;-97.118;2022-10-16T07:56:30;25.50;99.90
17774;DHT22;9011;33.236;-97.118;2022-10-16T07:58:59;25.50;99.90
17774;DHT22;9011;33.236;-97.118;2022-10-16T08:01:28;25.50;99.90
17774;DHT22;9011;33.236;-97.118;2022-10-16T08:03:56;25.40;99.90
17774;DHT22;9011;33.236;-97.118;2022-10-16T08:06:24;25.40;99.90
17774;DHT22;9011;33.236;-97.118;2022-10-16T08:08:55;25.40;99.90
17774;DHT22;9011;33.236;-97.118;2022-10-16T08:11:23;25.40;99.90
17774;DHT22;9011;33.236;-97.118;2022-10-16T08:13:52;25.40;99.90
17774;DHT22;9011;33.236;-97.118;2022-10-16T08:16:21;25.50;99.90
17774;DHT22;9011;33.236;-97.118;2022-10-16T08:18:49;25.40;99.90
17774;DHT22;9011;33.236;-97.118;2022-10-16T08:21:19;25.40;99.90
17774;DHT22;9011;33.236;-97.118;2022-10-16T08:23:49;25.40;99.90
17774;DHT22;9011;33.236;-97.118;2022-10-16T08:26:19;25.40;99.90
17774;DHT22;9011;33.236;-97.118;2022-10-16T08:28:50;25.40;99.90
17774;DHT22;9011;33.236;-97.118;2022-10-16T08:31:18;25.30;99.90
17774;DHT22;9011;33.236;-97.118;2022-10-16T08:33:47;25.30;99.90
17774;DHT22;9011;33.236;-97.118;2022-10-16T08:36:15;25.30;99.90
17774;DHT22;9011;33.236;-97.118;2022-10-16T08:38:47;25.20;99.90
17774;DHT22;9011;33.236;-97.118;2022-10-16T08:41:42;25.20;99.90
17774;DHT22;9011;33.236;-97.118;2022-10-16T08:44:35;25.20;99.90
17774;DHT22;9011;33.236;-97.118;2022-10-16T08:47:16;25.20;99.90
17774;DHT22;9011;33.236;-97.118;2022-10-16T08:49:56;25.10;99.90
17774;DHT22;9011;33.236;-97.118;2022-10-16T08:52:29;25.10;99.90
17774;DHT22;9011;33.236;-97.118;2022-10-16T08:55:00;25.10;99.90
17774;DHT22;9011;33.236;-97.118;2022-10-16T08:57:31;25.10;99.90
17774;DHT22;9011;33.236;-97.118;2022-10-16T09:00:05;25.10;99.90
17774;DHT22;9011;33.236;-97.118;2022-10-16T09:02:37;25.00;99.90
17774;DHT22;9011;33.236;-97.118;2022-10-16T09:05:24;24.30;99.90
17774;DHT22;9011;33.236;-97.118;2022-10-16T09:08:03;23.80;99.90
17774;DHT22;9011;33.236;-97.118;2022-10-16T09:10:41;23.40;99.90
17774;DHT22;9011;33.236;-97.118;2022-10-16T09:13:20;23.40;99.90
17774;DHT22;9011;33.236;-97.118;2022-10-16T09:15:54;23.20;99.90
17774;DHT22;9011;33.236;-97.118;2022-10-16T09:18:27;22.90;99.90
17774;DHT22;9011;33.236;-97.118;2022-10-16T09:21:01;22.40;99.90
17774;DHT22;9011;33.236;-97.118;2022-10-16T09:23:35;22.10;99.90
17774;DHT22;9011;33.236;-97.118;2022-10-16T09:26:05;21.70;99.90
17774;DHT22;9011;33.236;-97.118;2022-10-16T09:28:39;21.40;99.90
17774;DHT22;9011;33.236;-97.118;2022-10-16T09:31:14;20.90;99.90
17774;DHT22;9011;33.236;-97.118;2022-10-16T09:33:45;20.60;99.90
17774;DHT22;9011;33.236;-97.118;2022-10-16T09:36:15;20.40;99.90
17774;DHT22;9011;33.236;-97.118;2022-10-16T09:38:45;20.30;99.90
17774;DHT22;9011;33.236;-97.118;2022-10-16T09:41:19;20.00;99.90
17774;DHT22;9011;33.236;-97.118;2022-10-16T09:43:53;19.80;99.90
17774;DHT22;9011;33.236;-97.118;2022-10-16T09:46:25;19.60;99.90
17774;DHT22;9011;33.236;-97.118;2022-10-16T09:48:56;19.40;99.90
17774;DHT22;9011;33.236;-97.118;2022-10-16T09:51:27;19.20;99.90
17774;DHT22;9011;33.236;-97.118;2022-10-16T09:53:58;19.10;99.90
17774;DHT22;9011;33.236;-97.118;2022-10-16T09:56:28;18.90;99.90
17774;DHT22;9011;33.236;-97.118;2022-10-16T09:59:01;18.90;99.90
17774;DHT22;9011;33.236;-97.118;2022-10-16T10:01:35;18.90;99.90
17774;DHT22;9011;33.236;-97.118;2022-10-16T10:04:05;18.80;99.90
17774;DHT22;9011;33.236;-97.118;2022-10-16T10:06:35;18.80;99.90
17774;DHT22;9011;33.236;-97.118;2022-10-16T10:09:13;18.70;99.90
17774;DHT22;9011;33.236;-97.118;2022-10-16T10:11:48;18.70;99.90
17774;DHT22;9011;33.236;-97.118;2022-10-16T10:14:30;18.60;99.90
17774;DHT22;9011;33.236;-97.118;2022-10-16T10:17:10;18.60;99.90
17774;DHT22;9011;33.236;-97.118;2022-10-16T10:19:41;18.40;99.90
17774;DHT22;9011;33.236;-97.118;2022-10-16T10:22:39;18.50;99.90
17774;DHT22;9011;33.236;-97.118;2022-10-16T10:28:29;18.40;99.90
17774;DHT22;9011;33.236;-97.118;2022-10-16T10:31:06;18.40;99.90
17774;DHT22;9011;33.236;-97.118;2022-10-16T10:33:43;18.40;99.90
17774;DHT22;9011;33.236;-97.118;2022-10-16T10:36:21;18.30;99.90
17774;DHT22;9011;33.236;-97.118;2022-10-16T10:38:53;18.20;99.90
17774;DHT22;9011;33.236;-97.118;2022-10-16T10:41:52;18.20;99.90
17774;DHT22;9011;33.236;-97.118;2022-10-16T10:44:32;18.20;99.90
17774;DHT22;9011;33.236;-97.118;2022-10-16T10:47:10;18.20;99.90
17774;DHT22;9011;33.236;-97.118;2022-10-16T10:49:53;18.10;99.90
17774;DHT22;9011;33.236;-97.118;2022-10-16T10:52:38;18.10;99.90
17774;DHT22;9011;33.236;-97.118;2022-10-16T10:55:20;18.00;99.90
17774;DHT22;9011;33.236;-97.118;2022-10-16T10:58:01;18.00;99.90
17774;DHT22;9011;33.236;-97.118;2022-10-16T11:00:42;18.00;99.90
17774;DHT22;9011;33.236;-97.118;2022-10-16T11:03:31;18.00;99.90
17774;DHT22;9011;33.236;-97.118;2022-10-16T11:06:06;18.00;99.90
17774;DHT22;9011;33.236;-97.118;2022-10-16T11:08:37;18.00;99.90
17774;DHT22;9011;33.236;-97.118;2022-10-16T11:11:13;18.00;99.90
17774;DHT22;9011;33.236;-97.118;2022-10-16T11:13:48;18.00;99.90
17774;DHT22;9011;33.236;-97.118;2022-10-16T11:16:23;17.90;99.90
17774;DHT22;9011;33.236;-97.118;2022-10-16T11:19:02;18.00;99.90
17774;DHT22;9011;33.236;-97.118;2022-10-16T11:21:35;18.00;99.90
17774;DHT22;9011;33.236;-97.118;2022-10-16T11:24:11;18.00;99.90
17774;DHT22;9011;33.236;-97.118;2022-10-16T11:26:44;18.00;99.90
17774;DHT22;9011;33.236;-97.118;2022-10-16T11:29:19;18.00;99.90
17774;DHT22;9011;33.236;-97.118;2022-10-16T11:31:52;17.90;99.90
17774;DHT22;9011;33.236;-97.118;2022-10-16T11:34:28;17.90;99.90
17774;DHT22;9011;33.236;-97.118;2022-10-16T11:37:01;18.00;99.90
17774;DHT22;9011;33.236;-97.118;2022-10-16T11:39:32;17.90;99.90
17774;DHT22;9011;33.236;-97.118;2022-10-16T11:42:04;17.90;99.90
17774;DHT22;9011;33.236;-97.118;2022-10-16T11:44:48;17.90;99.90
17774;DHT22;9011;33.236;-97.118;2022-10-16T11:47:26;17.90;99.90
17774;DHT22;9011;33.236;-97.118;2022-10-16T11:50:00;17.90;99.90
17774;DHT22;9011;33.236;-97.118;2022-10-16T11:52:35;17.90;99.90
17774;DHT22;9011;33.236;-97.118;2022-10-16T11:55:13;17.90;99.90
17774;DHT22;9011;33.236;-97.118;2022-10-16T11:57:45;17.90;99.90
17774;DHT22;9011;33.236;-97.118;2022-10-16T12:00:22;17.90;99.90
17774;DHT22;9011;33.236;-97.118;2022-10-16T12:02:58;17.80;99.90
17774;DHT22;9011;33.236;-97.118;2022-10-16T12:05:38;17.80;99.90
17774;DHT22;9011;33.236;-97.118;2022-10-16T12:08:13;17.90;99.90
17774;DHT22;9011;33.236;-97.118;2022-10-16T12:10:44;17.80;99.90
17774;DHT22;9011;33.236;-97.118;2022-10-16T12:13:33;17.80;99.90
17774;DHT22;9011;33.236;-97.118;2022-10-16T12:16:06;17.90;99.90
17774;DHT22;9011;33.236;-97.118;2022-10-16T12:18:34;17.80;99.90
17774;DHT22;9011;33.236;-97.118;2022-10-16T12:21:05;17.70;99.90
17774;DHT22;9011;33.236;-97.118;2022-10-16T12:23:36;17.80;99.90
17774;DHT22;9011;33.236;-97.118;2022-10-16T12:26:05;17.80;99.90
17774;DHT22;9011;33.236;-97.118;2022-10-16T12:28:34;17.80;99.90
17774;DHT22;9011;33.236;-97.118;2022-10-16T12:31:07;17.80;99.90
17774;DHT22;9011;33.236;-97.118;2022-10-16T12:33:37;17.70;99.90
17774;DHT22;9011;33.236;-97.118;2022-10-16T12:36:13;17.70;99.90
17774;DHT22;9011;33.236;-97.118;2022-10-16T12:38:48;17.70;99.90
17774;DHT22;9011;33.236;-97.118;2022-10-16T12:41:25;17.80;99.90
17774;DHT22;9011;33.236;-97.118;2022-10-16T12:43:55;17.80;99.90
17774;DHT22;9011;33.236;-97.118;2022-10-16T12:46:38;17.80;99.90
17774;DHT22;9011;33.236;-97.118;2022-10-16T12:49:29;17.80;99.90
17774;DHT22;9011;33.236;-97.118;2022-10-16T12:51:59;17.80;99.90
17774;DHT22;9011;33.236;-97.118;2022-10-16T12:54:29;17.70;99.90
17774;DHT22;9011;33.236;-97.118;2022-10-16T12:57:09;17.70;99.90
17774;DHT22;9011;33.236;-97.118;2022-10-16T12:59:46;17.70;99.90
17774;DHT22;9011;33.236;-97.118;2022-10-16T13:02:46;17.70;99.90
17774;DHT22;9011;33.236;-97.118;2022-10-16T13:05:26;17.80;99.90
17774;DHT22;9011;33.236;-97.118;2022-10-16T13:08:06;17.80;99.90
17774;DHT22;9011;33.236;-97.118;2022-10-16T13:10:41;17.80;99.90
17774;DHT22;9011;33.236;-97.118;2022-10-16T13:13:27;17.80;99.90
17774;DHT22;9011;33.236;-97.118;2022-10-16T13:16:13;17.80;99.90
17774;DHT22;9011;33.236;-97.118;2022-10-16T13:18:51;17.80;99.90
17774;DHT22;9011;33.236;-97.118;2022-10-16T13:21:35;17.90;99.90
17774;DHT22;9011;33.236;-97.118;2022-10-16T13:24:17;17.90;99.90
17774;DHT22;9011;33.236;-97.118;2022-10-16T13:26:55;17.80;99.90
17774;DHT22;9011;33.236;-97.118;2022-10-16T13:29:24;17.80;99.90
17774;DHT22;9011;33.236;-97.118;2022-10-16T13:31:58;17.80;99.90
17774;DHT22;9011;33.236;-97.118;2022-10-16T13:34:27;17.90;99.90
17774;DHT22;9011;33.236;-97.118;2022-10-16T13:36:55;17.90;99.90
17774;DHT22;9011;33.236;-97.118;2022-10-16T13:39:26;17.90;99.90
17774;DHT22;9011;33.236;-97.118;2022-10-16T13:42:06;18.00;99.90
17774;DHT22;9011;33.236;-97.118;2022-10-16T13:44:39;18.10;99.90
17774;DHT22;9011;33.236;-97.118;2022-10-16T13:47:16;18.10;99.90
17774;DHT22;9011;33.236;-97.118;2022-10-16T13:49:44;18.20;99.90
17774;DHT22;9011;33.236;-97.118;2022-10-16T13:52:18;18.20;99.90
17774;DHT22;9011;33.236;-97.118;2022-10-16T13:54:48;18.20;99.90
17774;DHT22;9011;33.236;-97.118;2022-10-16T13:57:17;18.10;99.90
17774;DHT22;9011;33.236;-97.118;2022-10-16T13:59:45;18.10;99.90
17774;DHT22;9011;33.236;-97.118;2022-10-16T14:02:21;18.20;99.90
17774;DHT22;9011;33.236;-97.118;2022-10-16T14:04:50;18.20;99.90
17774;DHT22;9011;33.236;-97.118;2022-10-16T14:07:23;18.30;99.90
17774;DHT22;9011;33.236;-97.118;2022-10-16T14:09:54;18.40;99.90
17774;DHT22;9011;33.236;-97.118;2022-10-16T14:12:23;18.50;99.90
17774;DHT22;9011;33.236;-97.118;2022-10-16T14:14:53;18.60;99.90
17774;DHT22;9011;33.236;-97.118;2022-10-16T14:17:24;18.70;99.90
17774;DHT22;9011;33.236;-97.118;2022-10-16T14:19:54;18.50;99.90
17774;DHT22;9011;33.236;-97.118;2022-10-16T14:22:29;18.60;99.90
17774;DHT22;9011;33.236;-97.118;2022-10-16T14:24:59;18.60;99.90
17774;DHT22;9011;33.236;-97.118;2022-10-16T14:27:30;18.70;99.90
17774;DHT22;9011;33.236;-97.118;2022-10-16T14:30:20;18.80;99.90
17774;DHT22;9011;33.236;-97.118;2022-10-16T14:32:56;18.80;99.90
17774;DHT22;9011;33.236;-97.118;2022-10-16T14:35:27;19.00;99.90
17774;DHT22;9011;33.236;-97.118;2022-10-16T14:37:57;19.20;99.90
17774;DHT22;9011;33.236;-97.118;2022-10-16T14:40:29;19.20;99.90
17774;DHT22;9011;33.236;-97.118;2022-10-16T14:42:58;19.10;99.90
17774;DHT22;9011;33.236;-97.118;2022-10-16T14:45:29;19.10;99.90
17774;DHT22;9011;33.236;-97.118;2022-10-16T14:48:00;19.00;99.90
17774;DHT22;9011;33.236;-97.118;2022-10-16T14:50:29;19.20;99.90
17774;DHT22;9011;33.236;-97.118;2022-10-16T14:52:58;19.40;99.90
17774;DHT22;9011;33.236;-97.118;2022-10-16T14:55:28;19.50;99.90
17774;DHT22;9011;33.236;-97.118;2022-10-16T14:57:57;19.40;99.90
17774;DHT22;9011;33.236;-97.118;2022-10-16T15:00:25;19.50;99.90
17774;DHT22;9011;33.236;-97.118;2022-10-16T15:02:53;19.60;99.90
17774;DHT22;9011;33.236;-97.118;2022-10-16T15:05:23;19.70;99.90
17774;DHT22;9011;33.236;-97.118;2022-10-16T15:07:53;19.60;99.90
17774;DHT22;9011;33.236;-97.118;2022-10-16T15:10:22;19.70;99.90
17774;DHT22;9011;33.236;-97.118;2022-10-16T15:12:52;19.70;99.90
17774;DHT22;9011;33.236;-97.118;2022-10-16T15:15:42;19.70;99.90
17774;DHT22;9011;33.236;-97.118;2022-10-16T15:18:10;19.80;99.90
17774;DHT22;9011;33.236;-97.118;2022-10-16T15:20:41;19.90;99.90
17774;DHT22;9011;33.236;-97.118;2022-10-16T15:23:13;19.70;99.90
17774;DHT22;9011;33.236;-97.118;2022-10-16T15:25:43;19.80;99.90
17774;DHT22;9011;33.236;-97.118;2022-10-16T15:28:14;19.90;99.90
17774;DHT22;9011;33.236;-97.118;2022-10-16T15:30:43;20.00;99.90
17774;DHT22;9011;33.236;-97.118;2022-10-16T15:33:14;19.90;99.90
17774;DHT22;9011;33.236;-97.118;2022-10-16T15:35:45;19.80;99.90
17774;DHT22;9011;33.236;-97.118;2022-10-16T15:38:14;19.90;99.90
17774;DHT22;9011;33.236;-97.118;2022-10-16T15:40:43;19.90;99.90
17774;DHT22;9011;33.236;-97.118;2022-10-16T15:43:13;19.80;99.90
17774;DHT22;9011;33.236;-97.118;2022-10-16T15:45:41;19.90;99.90
17774;DHT22;9011;33.236;-97.118;2022-10-16T15:48:12;19.90;99.90